Artois, California
Current Conditions -  °F | °C
As of 10:15 PM on Friday 24 Oct 2014 (Local Time) from KCIC Reporting Station
Scattered Clouds Scattered Clouds  
Wind Chill: 68°   Ceiling: Unl
Heat Index: 68°   Visibility: 10mi
Dew Point: 48°   Wind: 16mph
Humidity: 49%   Direction: 140°SE
Pressure: 29.84"   Gusts: NA
Location:  39.62°N, 122.2°W
Report Text: KCIC 250515Z AUTO 14014KT 10SM SCT060 20/09 A2984 RMK AO1
Loading
Personal Weather Stations






























Interactive Weather Map
Tropical Storm Tracking
New forecast layout! Learn more

10-Day Weather Forecast

Advertisements
Track Severe Weather on mobile